createdAt,value
2022-11-05T00:03:45.276Z,6.53
2022-11-05T00:11:19.009Z,6.25
2022-11-05T00:19:07.390Z,5.40
2022-11-05T00:26:41.125Z,4.80
2022-11-05T00:34:17.297Z,5.57
2022-11-05T00:42:11.261Z,5.40
2022-11-05T00:49:46.300Z,4.78
2022-11-05T00:57:19.967Z,5.75
2022-11-05T01:04:55.005Z,5.30
2022-11-05T01:12:28.927Z,5.25
2022-11-05T01:20:04.187Z,5.10
2022-11-05T01:27:37.993Z,4.97
2022-11-05T01:35:16.057Z,5.05
2022-11-05T01:42:50.451Z,5.20
2022-11-05T01:50:34.601Z,4.87
2022-11-05T01:58:12.829Z,5.90
2022-11-05T02:05:50.725Z,5.45
2022-11-05T02:13:24.364Z,6.80
2022-11-05T02:21:21.060Z,6.30
2022-11-05T02:29:18.496Z,6.78
2022-11-05T02:37:03.489Z,5.28
2022-11-05T02:44:45.934Z,5.88
2022-11-05T02:52:26.284Z,6.35
2022-11-05T03:00:04.100Z,5.30
2022-11-05T03:07:50.465Z,5.35
2022-11-05T03:15:40.464Z,5.22
2022-11-05T03:23:24.391Z,4.70
2022-11-05T03:30:59.347Z,4.47
2022-11-05T03:38:38.920Z,4.53
2022-11-05T03:46:18.754Z,5.03
2022-11-05T03:53:58.639Z,4.72
2022-11-05T04:01:32.816Z,4.55
2022-11-05T04:09:25.319Z,4.73
2022-11-05T04:17:09.536Z,4.50
2022-11-05T04:24:44.839Z,4.43
2022-11-05T04:32:18.513Z,4.20
2022-11-05T04:39:53.627Z,4.43
2022-11-05T04:47:27.288Z,3.40
2022-11-05T04:55:02.432Z,3.85
2022-11-05T05:02:37.538Z,3.40
2022-11-05T05:17:51.396Z,3.20
2022-11-05T05:25:26.498Z,3.03
2022-11-05T05:33:02.978Z,3.25
2022-11-05T05:40:37.963Z,3.13
2022-11-05T05:48:11.575Z,3.55
2022-11-05T05:55:46.538Z,4.57
2022-11-05T06:03:20.682Z,4.60
2022-11-05T06:10:55.707Z,4.87
2022-11-05T06:18:29.608Z,4.43
2022-11-05T06:26:07.136Z,4.07
2022-11-05T06:33:41.410Z,3.85
2022-11-05T06:41:16.713Z,3.63
2022-11-05T06:48:51.021Z,3.20
2022-11-05T06:56:26.136Z,3.73
2022-11-05T07:03:59.852Z,3.60
2022-11-05T07:11:34.833Z,4.70
2022-11-05T07:19:08.502Z,3.22
2022-11-05T07:26:43.619Z,4.07
2022-11-05T07:34:17.639Z,3.85
2022-11-05T07:41:54.923Z,4.18
2022-11-05T07:49:28.607Z,4.22
2022-11-05T07:57:03.531Z,4.30
2022-11-05T08:04:37.189Z,4.07
2022-11-05T08:12:12.221Z,3.15
2022-11-05T08:19:45.834Z,3.30
2022-11-05T08:27:20.866Z,4.10
2022-11-05T08:34:54.505Z,2.92
2022-11-05T08:42:29.897Z,3.83
2022-11-05T08:50:03.843Z,3.72
2022-11-05T08:57:38.804Z,5.33
2022-11-05T09:12:47.512Z,5.13
2022-11-05T09:20:21.554Z,3.92
2022-11-05T09:28:07.803Z,4.20
2022-11-05T09:35:44.005Z,3.50
2022-11-05T09:43:26.094Z,3.63
2022-11-05T09:51:05.710Z,3.53
2022-11-05T09:58:44.971Z,3.78
2022-11-05T10:06:22.659Z,3.47
2022-11-05T10:14:00.597Z,3.58
2022-11-05T10:22:04.325Z,2.83
2022-11-05T10:29:32.563Z,3.03
2022-11-05T10:37:07.744Z,2.53
2022-11-05T10:44:48.825Z,2.65
2022-11-05T10:52:25.808Z,2.50
2022-11-05T11:00:24.034Z,2.60
2022-11-05T11:08:01.607Z,2.00
2022-11-05T11:15:37.450Z,1.75
2022-11-05T11:23:13.976Z,2.08
2022-11-05T11:30:52.617Z,1.42
2022-11-05T11:38:30.191Z,1.92
2022-11-05T11:46:09.927Z,2.20
2022-11-05T11:53:49.263Z,1.30
2022-11-05T12:01:55.742Z,1.10
2022-11-05T12:09:38.406Z,1.73
2022-11-05T12:17:33.260Z,0.95
2022-11-05T12:25:27.788Z,1.37
2022-11-05T12:33:17.320Z,1.63
2022-11-05T12:41:06.980Z,2.08
2022-11-05T12:48:53.811Z,1.30
2022-11-05T12:56:35.321Z,1.35
2022-11-05T13:04:16.346Z,1.05
2022-11-05T13:11:55.502Z,1.13
2022-11-05T13:19:33.071Z,1.38
2022-11-05T13:27:31.821Z,1.13
2022-11-05T13:35:09.086Z,1.23
2022-11-05T13:43:11.833Z,1.38
2022-11-05T13:51:03.741Z,1.20
2022-11-05T13:58:58.725Z,1.17
2022-11-05T14:06:36.062Z,0.90
2022-11-05T14:14:19.115Z,1.00
2022-11-05T14:21:54.455Z,1.63
2022-11-05T14:29:39.595Z,0.90
2022-11-05T14:37:37.197Z,1.38
2022-11-05T14:45:27.197Z,1.10
2022-11-05T14:53:10.831Z,1.30
2022-11-05T15:00:49.155Z,2.17
2022-11-05T15:08:32.807Z,1.15
2022-11-05T15:16:08.901Z,1.60
2022-11-05T15:23:45.549Z,1.88
2022-11-05T15:31:31.913Z,2.53
2022-11-05T15:39:29.359Z,1.58
2022-11-05T15:47:16.007Z,2.00
2022-11-05T15:55:08.895Z,2.40
2022-11-05T16:02:44.595Z,2.42
2022-11-05T16:10:20.464Z,3.38
2022-11-05T16:17:58.809Z,4.03
2022-11-05T16:25:40.213Z,3.63
2022-11-05T16:33:15.347Z,3.30
2022-11-05T16:40:49.127Z,3.80
2022-11-05T16:48:24.255Z,3.08
2022-11-05T16:55:58.060Z,3.10
2022-11-05T17:03:33.176Z,3.03
2022-11-05T17:11:07.611Z,3.22
2022-11-05T17:18:43.691Z,5.50
2022-11-05T17:26:17.559Z,5.80
2022-11-05T17:33:56.697Z,4.47
2022-11-05T17:41:30.792Z,4.88
2022-11-05T17:49:06.598Z,5.33
2022-11-05T17:56:44.855Z,6.07
2022-11-05T18:04:20.056Z,7.85
2022-11-05T18:11:53.905Z,10.98
2022-11-05T18:19:29.383Z,12.55
2022-11-05T18:27:03.106Z,11.27
2022-11-05T18:34:38.263Z,11.90
2022-11-05T18:42:12.026Z,14.18
2022-11-05T18:49:48.314Z,12.20
2022-11-05T18:57:21.968Z,11.88
2022-11-05T19:12:50.882Z,12.77
2022-11-05T19:20:26.079Z,13.87
2022-11-05T19:27:59.679Z,13.80
2022-11-05T19:35:40.920Z,14.02
2022-11-05T19:43:15.183Z,15.88
2022-11-05T19:50:51.387Z,13.53
2022-11-05T19:58:25.089Z,15.30
2022-11-05T20:06:04.509Z,14.75
2022-11-05T20:13:38.253Z,16.33
2022-11-05T20:21:13.291Z,17.13
2022-11-05T20:28:47.157Z,16.85
2022-11-05T20:36:24.057Z,16.00
2022-11-05T20:43:57.699Z,18.25
2022-11-05T20:51:32.718Z,19.10
2022-11-05T20:59:06.808Z,17.27
2022-11-05T21:06:41.927Z,16.57
2022-11-05T21:14:15.824Z,16.15
2022-11-05T21:21:50.925Z,16.27
2022-11-05T21:29:24.835Z,15.88
2022-11-05T21:36:59.976Z,13.73
2022-11-05T21:44:33.805Z,12.98
2022-11-05T21:52:29.873Z,12.87
2022-11-05T22:00:06.998Z,13.43
2022-11-05T22:07:42.448Z,12.45
2022-11-05T22:15:16.266Z,11.98
2022-11-05T22:22:51.272Z,11.40
2022-11-05T22:30:25.018Z,11.27
2022-11-05T22:38:00.042Z,10.43
2022-11-05T22:45:36.489Z,10.73
2022-11-05T22:53:12.758Z,9.95
2022-11-05T23:00:46.501Z,10.77
2022-11-05T23:08:38.929Z,11.03
2022-11-05T23:16:30.633Z,10.65
2022-11-05T23:24:06.426Z,10.75
2022-11-05T23:31:57.477Z,11.40
2022-11-05T23:39:33.451Z,10.85
2022-11-05T23:47:29.493Z,9.85
2022-11-05T23:55:06.179Z,9.70
